Ottawa, IL

9:27 AM CDT on August 29, 2015 (GMT -0500)
LaSalle County Government Complex | | Change Station
CLOSE
Current Station
Personal Weather Station
Location: Ottawa, IL
Elevation: 614 ft
Nearby Weather Stations

Elev 614 ft 41.37 °N, 88.83 °W | Updated 6 minutes ago

Overcast
Overcast
68.9 °F
Feels Like 68.9 °F
N
4.0
Wind Variable Wind from SSE
Gusts 6.0 mph

Today
High -- | Low -- °F
--% Chance of Precip.
Yesterday
High -- | Low -- °F
Precip. -- in
6:18 AM 7:33 PM
Full, 100% visible
Pressure 30.01 in
Visibility 10.0 miles
Clouds Scattered Clouds 4700 ft
Scattered Clouds 6000 ft
Mostly Cloudy 7500 ft
Dew Point 65 °F
Humidity 87%
Rainfall 0.00 in
Snow Depth Not available.
UV 2 out of 12
Pollen .70 out of 12
Air Quality Not available.
Flu Activity Not available.
METAR KVYS 291415Z AUTO 18007KT 10SM SCT047 SCT060 BKN075 20/18 A3001 RMK AO2 LTG DSNT N T02020176
Pressure 30.01 in
Visibility 10.0 miles
Clouds Scattered Clouds 4700 ft
Scattered Clouds 6000 ft
Mostly Cloudy 7500 ft
Dew Point 65 °F
Humidity 87%
Rainfall 0.00 in
Snow Depth Not available.
UV 2 out of 12
Pollen .70 out of 12
Air Quality Not available.
Flu Activity Not available.
METAR KVYS 291415Z AUTO 18007KT 10SM SCT047 SCT060 BKN075 20/18 A3001 RMK AO2 LTG DSNT N T02020176

10-Day Weather Forecast

×

Almanac

Astronomy

Aug. 29, 2015 Rise Set
Actual Time
Civil Twilight
Nautical Twilight
Astronomical Twilight
Moon
Length of Visible Light
Length of Day
Tomorrow will be .
, % of the Moon is Illuminated

Today's Extremes

State Highs State Lows

Community

WunderPhotos

Upload Photos

1,850,706 photos uploaded!

WunderBlogs® & News

Nearby

Air Quality

  Air Quality AQ Index Pollutant
Not available.

Snow Depth

Station Depth Elevation

Earthquake Activity

City Distance Mag. Time & Date
Minimum magnitude displayed is 2.5.

Coastal Water Temperatures

Place Temperature

Stations

Nearby Weather Stations

Station Location Temp. Windchill Dew Point Humidity Wind Precip. Elev Updated Type